Rhonda Lamulle — WDC8441 — position and weather

sailwx.info

Track history (hours):
 
Tides and Currents Weather Stations Pressure Air Temp Water Temp Dewpoint Dewpoint Depression Visibility Wind Speed Wind Dir Waves Ship Positions

Rhonda Lamulle

Owner: Florida Marine, LLC, Mandeville, LA. More information available from US FCC via Universal Licensing System and Coast Guard Vessel Documentation Center.

Last reported at 2016-Jul-02 04:33 UTC. Time now 2016-Jul-02 05:51 UTC.
Position N 30°29' W 086°29'.

Length 13 m; draft 3 m.

Type: Towing. MMSI: 367087104.

Date/timePositionNaut miles runAvg speedWind from/ knotsBaromVisibWave heightAir tempDewpointWater temp
2016-Jul-02 04:33N 30°29' W 086°29'0 0.0
2016-Jul-02 03:33N 30°29' W 086°29'0 0.0
2016-Jul-02 02:33N 30°29' W 086°29'0 0.0
2016-Jul-02 01:33N 30°29' W 086°29'0 0.0
2016-Jul-02 00:33N 30°29' W 086°29'0 0.0
2016-Jul-01 23:33N 30°29' W 086°29'0 0.0
2016-Jul-01 22:33N 30°29' W 086°29'0 0.0
2016-Jul-01 21:33N 30°29' W 086°29'0 0.0
2016-Jul-01 20:33N 30°29' W 086°29'0 0.0
2016-Jul-01 19:33N 30°29' W 086°29'0 0.0
2016-Jul-01 18:33N 30°29' W 086°29'0 0.1
2016-Jul-01 17:33N 30°29' W 086°29'0 0.0
2016-Jul-01 16:33N 30°29' W 086°29'0 0.0
2016-Jul-01 15:33N 30°29' W 086°29'0 0.0
2016-Jul-01 14:33N 30°29' W 086°29'0 0.0
2016-Jul-01 13:04N 30°29' W 086°29'0 0.0
2016-Jul-01 12:33N 30°29' W 086°29'0 0.0
2016-Jul-01 11:33N 30°29' W 086°29'0 0.0
2016-Jul-01 10:33N 30°29' W 086°29'0 0.0
2016-Jul-01 09:33N 30°29' W 086°29'0 0.0
2016-Jul-01 08:33N 30°29' W 086°29'0 0.0
2016-Jul-01 07:33N 30°29' W 086°29'0 0.0
2016-Jul-01 06:33N 30°29' W 086°29'0 0.0
2016-Jul-01 05:33N 30°29' W 086°29'0 0.0
2016-Jul-01 04:33N 30°29' W 086°29'0 0.0
2016-Jul-01 03:33N 30°29' W 086°29'0 0.0
2016-Jul-01 02:33N 30°29' W 086°29'0 0.0
2016-Jul-01 01:33N 30°29' W 086°29'0 0.0
2016-Jul-01 00:33N 30°29' W 086°29'0 0.0
2016-Jun-30 23:33N 30°29' W 086°29'0 0.0
2016-Jun-30 22:33N 30°29' W 086°29'0 0.0
2016-Jun-30 21:33N 30°29' W 086°29'0 0.0
2016-Jun-30 20:33N 30°29' W 086°29'0 0.0
2016-Jun-30 19:33N 30°29' W 086°29'0 0.0
2016-Jun-30 18:33N 30°29' W 086°29'0 0.0
2016-Jun-30 17:33N 30°29' W 086°29'0 0.0
2016-Jun-30 16:33N 30°29' W 086°29'0 0.0
2016-Jun-30 15:33N 30°29' W 086°29'0 0.0
2016-Jun-30 14:33N 30°29' W 086°29'0 0.0
2016-Jun-30 13:03N 30°29' W 086°29'0 0.0
2016-Jun-30 12:33N 30°29' W 086°29'0 0.0
2016-Jun-30 11:33N 30°29' W 086°29'0 0.0
2016-Jun-30 10:33N 30°29' W 086°29'0 0.0
2016-Jun-30 09:33N 30°29' W 086°29'0 0.0
2016-Jun-30 08:33N 30°29' W 086°29'3 2.6
2016-Jun-30 07:33N 30°27' W 086°27'6 6.4
2016-Jun-30 06:33N 30°26' W 086°20'  
2016-Jun-23 14:31N 30°25' W 086°13'9 6.0
2016-Jun-23 13:04N 30°26' W 086°23'3 6.3
2016-Jun-23 12:33N 30°26' W 086°26'6 6.0
2016-Jun-23 11:33N 30°24' W 086°33'10 4.5
2016-Jun-23 09:25N 30°24' W 086°44'5 5.5
2016-Jun-23 08:33N 30°24' W 086°50'  
Track history (hours):
 
Tides and Currents Weather Stations Pressure Air Temp Water Temp Dewpoint Dewpoint Depression Visibility Wind Speed Wind Dir Waves Ship Positions

Rhonda Lamulle

Owner: Florida Marine, LLC, Mandeville, LA. More information available from US FCC via Universal Licensing System and Coast Guard Vessel Documentation Center.

Last reported at 2016-Jul-02 04:33 UTC. Time now 2016-Jul-02 05:51 UTC.
Position N 30°29' W 086°29'.

Length 13 m; draft 3 m.

Type: Towing. MMSI: 367087104.

Date/timePositionNaut miles runAvg speedWind from/ knotsBaromVisibWave heightAir tempDewpointWater temp
2016-Jul-02 04:33N 30°29' W 086°29'0 0.0
2016-Jul-02 03:33N 30°29' W 086°29'0 0.0
2016-Jul-02 02:33N 30°29' W 086°29'0 0.0
2016-Jul-02 01:33N 30°29' W 086°29'0 0.0
2016-Jul-02 00:33N 30°29' W 086°29'0 0.0
2016-Jul-01 23:33N 30°29' W 086°29'0 0.0
2016-Jul-01 22:33N 30°29' W 086°29'0 0.0
2016-Jul-01 21:33N 30°29' W 086°29'0 0.0
2016-Jul-01 20:33N 30°29' W 086°29'0 0.0
2016-Jul-01 19:33N 30°29' W 086°29'0 0.0
2016-Jul-01 18:33N 30°29' W 086°29'0 0.1
2016-Jul-01 17:33N 30°29' W 086°29'0 0.0
2016-Jul-01 16:33N 30°29' W 086°29'0 0.0
2016-Jul-01 15:33N 30°29' W 086°29'0 0.0
2016-Jul-01 14:33N 30°29' W 086°29'0 0.0
2016-Jul-01 13:04N 30°29' W 086°29'0 0.0
2016-Jul-01 12:33N 30°29' W 086°29'0 0.0
2016-Jul-01 11:33N 30°29' W 086°29'0 0.0
2016-Jul-01 10:33N 30°29' W 086°29'0 0.0
2016-Jul-01 09:33N 30°29' W 086°29'0 0.0
2016-Jul-01 08:33N 30°29' W 086°29'0 0.0
2016-Jul-01 07:33N 30°29' W 086°29'0 0.0
2016-Jul-01 06:33N 30°29' W 086°29'0 0.0
2016-Jul-01 05:33N 30°29' W 086°29'0 0.0
2016-Jul-01 04:33N 30°29' W 086°29'0 0.0
2016-Jul-01 03:33N 30°29' W 086°29'0 0.0
2016-Jul-01 02:33N 30°29' W 086°29'0 0.0
2016-Jul-01 01:33N 30°29' W 086°29'0 0.0
2016-Jul-01 00:33N 30°29' W 086°29'0 0.0
2016-Jun-30 23:33N 30°29' W 086°29'0 0.0
2016-Jun-30 22:33N 30°29' W 086°29'0 0.0
2016-Jun-30 21:33N 30°29' W 086°29'0 0.0
2016-Jun-30 20:33N 30°29' W 086°29'0 0.0
2016-Jun-30 19:33N 30°29' W 086°29'0 0.0
2016-Jun-30 18:33N 30°29' W 086°29'0 0.0
2016-Jun-30 17:33N 30°29' W 086°29'0 0.0
2016-Jun-30 16:33N 30°29' W 086°29'0 0.0
2016-Jun-30 15:33N 30°29' W 086°29'0 0.0
2016-Jun-30 14:33N 30°29' W 086°29'0 0.0
2016-Jun-30 13:03N 30°29' W 086°29'0 0.0
2016-Jun-30 12:33N 30°29' W 086°29'0 0.0
2016-Jun-30 11:33N 30°29' W 086°29'0 0.0
2016-Jun-30 10:33N 30°29' W 086°29'0 0.0
2016-Jun-30 09:33N 30°29' W 086°29'0 0.0
2016-Jun-30 08:33N 30°29' W 086°29'3 2.6
2016-Jun-30 07:33N 30°27' W 086°27'6 6.4
2016-Jun-30 06:33N 30°26' W 086°20'  
2016-Jun-23 14:31N 30°25' W 086°13'9 6.0
2016-Jun-23 13:04N 30°26' W 086°23'3 6.3
2016-Jun-23 12:33N 30°26' W 086°26'6 6.0
2016-Jun-23 11:33N 30°24' W 086°33'10 4.5
2016-Jun-23 09:25N 30°24' W 086°44'5 5.5
2016-Jun-23 08:33N 30°24' W 086°50'  

Dump ship's entire track history